createdAt,value
2023-05-12T00:02:27.957Z,15.37
2023-05-12T00:04:55.743Z,16.43
2023-05-12T00:07:23.627Z,13.87
2023-05-12T00:09:51.340Z,14.10
2023-05-12T00:12:19.888Z,16.40
2023-05-12T00:14:47.582Z,15.50
2023-05-12T00:17:15.263Z,15.77
2023-05-12T00:19:44.408Z,16.90
2023-05-12T00:22:12.401Z,14.43
2023-05-12T00:24:40.744Z,17.53
2023-05-12T00:27:08.467Z,17.20
2023-05-12T00:29:36.796Z,17.40
2023-05-12T00:32:05.392Z,17.33
2023-05-12T00:34:33.207Z,20.13
2023-05-12T00:37:02.233Z,17.07
2023-05-12T00:39:29.912Z,16.70
2023-05-12T00:41:58.465Z,17.80
2023-05-12T00:44:26.900Z,16.53
2023-05-12T00:46:55.277Z,17.43
2023-05-12T00:49:23.076Z,19.03
2023-05-12T00:51:52.386Z,16.43
2023-05-12T00:54:21.662Z,15.73
2023-05-12T00:56:49.432Z,15.93
2023-05-12T00:59:17.125Z,14.97
2023-05-12T01:01:45.273Z,14.80
2023-05-12T01:04:13.084Z,15.03
2023-05-12T01:06:46.586Z,15.23
2023-05-12T01:09:15.054Z,15.70
2023-05-12T01:11:44.140Z,16.17
2023-05-12T01:14:11.882Z,16.67
2023-05-12T01:16:44.073Z,18.53
2023-05-12T01:19:25.571Z,18.37
2023-05-12T01:21:53.852Z,17.97
2023-05-12T01:24:25.656Z,17.83
2023-05-12T01:26:54.781Z,19.23
2023-05-12T01:29:23.391Z,16.97
2023-05-12T01:31:51.930Z,17.97
2023-05-12T01:34:19.606Z,18.33
2023-05-12T01:36:47.517Z,17.17
2023-05-12T01:39:15.203Z,17.03
2023-05-12T01:41:42.876Z,16.60
2023-05-12T01:44:11.932Z,17.63
2023-05-12T01:46:39.622Z,18.00
2023-05-12T01:49:07.338Z,17.80
2023-05-12T01:51:35.151Z,17.87
2023-05-12T01:54:02.828Z,16.30
2023-05-12T01:56:30.516Z,17.30
2023-05-12T01:58:58.380Z,17.17
2023-05-12T02:01:28.826Z,18.03
2023-05-12T02:03:56.824Z,17.50
2023-05-12T02:06:25.940Z,20.40
2023-05-12T02:08:53.877Z,20.93
2023-05-12T02:11:22.080Z,21.20
2023-05-12T02:13:49.835Z,22.10
2023-05-12T02:16:17.621Z,21.07
2023-05-12T02:18:46.862Z,23.70
2023-05-12T02:21:14.898Z,20.80
2023-05-12T02:23:42.737Z,21.03
2023-05-12T02:26:10.429Z,19.90
2023-05-12T02:28:38.853Z,19.37
2023-05-12T02:31:06.581Z,20.03
2023-05-12T02:33:34.313Z,20.33
2023-05-12T02:36:03.636Z,21.60
2023-05-12T02:38:31.319Z,22.37
2023-05-12T02:40:59.253Z,20.53
2023-05-12T02:43:27.083Z,19.77
2023-05-12T02:45:55.500Z,20.80
2023-05-12T02:48:23.195Z,20.23
2023-05-12T02:50:50.926Z,18.73
2023-05-12T02:53:19.982Z,19.77
2023-05-12T02:55:47.776Z,18.60
2023-05-12T02:58:15.725Z,19.00
2023-05-12T03:00:43.442Z,19.37
2023-05-12T03:03:11.366Z,20.03
2023-05-12T03:05:39.227Z,19.30
2023-05-12T03:08:06.950Z,20.77
2023-05-12T03:10:36.412Z,20.13
2023-05-12T03:13:04.290Z,23.70
2023-05-12T03:15:32.074Z,26.00
2023-05-12T03:17:59.764Z,25.80
2023-05-12T03:20:27.702Z,22.70
2023-05-12T03:22:55.484Z,22.77
2023-05-12T03:25:23.169Z,21.93
2023-05-12T03:27:52.238Z,21.10
2023-05-12T03:30:20.093Z,20.40
2023-05-12T03:32:48.176Z,20.60
2023-05-12T03:35:16.214Z,20.20
2023-05-12T03:37:44.062Z,21.23
2023-05-12T03:40:18.387Z,20.60
2023-05-12T03:42:46.779Z,22.07
2023-05-12T03:45:15.798Z,21.73
2023-05-12T03:47:43.536Z,21.67
2023-05-12T03:50:11.980Z,23.37
2023-05-12T03:52:41.266Z,22.90
2023-05-12T03:55:10.334Z,21.27
2023-05-12T03:57:38.187Z,20.83
2023-05-12T04:00:07.287Z,20.47
2023-05-12T04:02:36.778Z,20.93
2023-05-12T04:05:08.177Z,22.63
2023-05-12T04:07:35.889Z,25.83
2023-05-12T04:10:03.920Z,24.50
2023-05-12T04:12:31.690Z,23.33
2023-05-12T04:14:59.933Z,24.17
2023-05-12T04:17:28.023Z,25.23
2023-05-12T04:19:57.277Z,23.53
2023-05-12T04:22:25.716Z,23.47
2023-05-12T04:24:53.642Z,25.60
2023-05-12T04:27:21.573Z,24.43
2023-05-12T04:29:49.378Z,23.57
2023-05-12T04:32:18.396Z,22.90
2023-05-12T04:34:46.104Z,25.47
2023-05-12T04:37:15.174Z,21.00
2023-05-12T04:39:42.958Z,23.40
2023-05-12T04:42:10.664Z,22.03
2023-05-12T04:44:38.531Z,22.27
2023-05-12T04:47:06.615Z,20.93
2023-05-12T04:49:34.544Z,21.97
2023-05-12T04:52:02.435Z,19.90
2023-05-12T04:54:32.055Z,19.67
2023-05-12T04:56:59.761Z,20.13
2023-05-12T04:59:27.650Z,19.43
2023-05-12T05:01:55.429Z,19.90
2023-05-12T05:04:23.253Z,19.17
2023-05-12T05:06:51.091Z,18.83
2023-05-12T05:09:19.034Z,18.23
2023-05-12T05:11:48.456Z,21.53
2023-05-12T05:14:16.250Z,19.73
2023-05-12T05:16:43.978Z,18.70
2023-05-12T05:19:20.934Z,18.93
2023-05-12T05:21:53.648Z,16.83
2023-05-12T05:24:21.566Z,18.30
2023-05-12T05:26:50.802Z,18.57
2023-05-12T05:29:19.034Z,15.13
2023-05-12T05:31:47.118Z,15.57
2023-05-12T05:34:14.882Z,16.17
2023-05-12T05:36:42.598Z,18.10
2023-05-12T05:39:11.173Z,16.03
2023-05-12T05:41:39.158Z,15.13
2023-05-12T05:44:08.305Z,14.30
2023-05-12T05:46:36.038Z,14.60
2023-05-12T05:49:03.807Z,15.23
2023-05-12T05:51:31.595Z,14.00
2023-05-12T05:53:59.461Z,15.70
2023-05-12T05:56:27.353Z,14.57
2023-05-12T05:58:55.086Z,13.90
2023-05-12T06:01:24.215Z,15.40
2023-05-12T06:03:52.011Z,13.43
2023-05-12T06:06:19.809Z,14.97
2023-05-12T06:08:47.465Z,13.23
2023-05-12T06:11:17.750Z,11.90
2023-05-12T06:13:45.725Z,16.30
2023-05-12T06:16:13.441Z,15.77
2023-05-12T06:18:42.631Z,11.27
2023-05-12T06:21:10.611Z,11.30
2023-05-12T06:23:38.317Z,11.43
2023-05-12T06:26:08.049Z,11.23
2023-05-12T06:28:35.745Z,11.23
2023-05-12T06:31:03.666Z,10.63
2023-05-12T06:33:31.376Z,10.33
2023-05-12T06:36:00.485Z,12.23
2023-05-12T06:38:28.247Z,9.70
2023-05-12T06:40:55.948Z,9.37
2023-05-12T06:43:24.330Z,9.87
2023-05-12T06:45:52.196Z,8.37
2023-05-12T06:48:19.958Z,10.37
2023-05-12T06:50:48.085Z,10.57
2023-05-12T06:53:18.120Z,11.30
2023-05-12T06:55:47.151Z,8.50
2023-05-12T06:58:17.070Z,9.10
2023-05-12T07:00:44.776Z,8.63
2023-05-12T07:03:13.008Z,7.70
2023-05-12T07:05:41.354Z,8.27
2023-05-12T07:08:10.054Z,8.23
2023-05-12T07:10:39.991Z,7.83
2023-05-12T07:13:08.206Z,6.77
2023-05-12T07:15:36.253Z,9.73
2023-05-12T07:18:04.207Z,7.40
2023-05-12T07:20:31.950Z,6.20
2023-05-12T07:22:59.776Z,6.53
2023-05-12T07:25:28.185Z,8.10
2023-05-12T07:27:57.313Z,6.67
2023-05-12T07:30:25.214Z,6.50
2023-05-12T07:32:54.183Z,8.87
2023-05-12T07:35:22.397Z,8.70
2023-05-12T07:37:50.291Z,6.90
2023-05-12T07:40:18.274Z,9.70
2023-05-12T07:42:46.027Z,6.70
2023-05-12T07:45:22.780Z,10.03
2023-05-12T07:47:51.617Z,9.03
2023-05-12T07:50:19.605Z,9.73
2023-05-12T07:52:48.925Z,7.77
2023-05-12T07:55:17.157Z,7.60
2023-05-12T07:57:45.044Z,7.17
2023-05-12T08:00:15.687Z,7.50
2023-05-12T08:02:44.204Z,7.40
2023-05-12T08:05:12.541Z,6.63
2023-05-12T08:07:43.444Z,7.00
2023-05-12T08:10:12.908Z,8.87
2023-05-12T08:12:41.257Z,8.50
2023-05-12T08:15:10.069Z,7.03
2023-05-12T08:17:39.340Z,7.00
2023-05-12T08:20:09.171Z,6.67
2023-05-12T08:22:39.947Z,7.43
2023-05-12T08:25:10.358Z,9.10
2023-05-12T08:27:41.191Z,7.67
2023-05-12T08:30:09.959Z,9.83
2023-05-12T08:32:39.103Z,7.90
2023-05-12T08:35:07.393Z,9.67
2023-05-12T08:37:35.243Z,8.37
2023-05-12T08:40:05.067Z,8.87
2023-05-12T08:42:39.605Z,11.70
2023-05-12T08:45:10.121Z,8.57
2023-05-12T08:47:40.104Z,8.63
2023-05-12T08:50:09.992Z,8.33
2023-05-12T08:52:37.900Z,8.57
2023-05-12T08:55:06.911Z,7.33
2023-05-12T08:57:36.955Z,7.20
2023-05-12T09:00:09.104Z,8.10
2023-05-12T09:02:52.270Z,6.43
2023-05-12T09:05:23.360Z,6.87
2023-05-12T09:07:52.980Z,6.90
2023-05-12T09:10:34.571Z,6.83
2023-05-12T09:13:05.615Z,8.37
2023-05-12T09:15:39.035Z,6.70
2023-05-12T09:18:09.221Z,6.83
2023-05-12T09:20:37.444Z,6.50
2023-05-12T09:23:15.758Z,6.43
2023-05-12T09:25:43.750Z,7.93
2023-05-12T09:28:11.656Z,7.10
2023-05-12T09:30:42.218Z,7.97
2023-05-12T09:33:13.392Z,6.97
2023-05-12T09:35:42.531Z,7.37
2023-05-12T09:38:12.153Z,6.47
2023-05-12T09:40:41.106Z,5.87
2023-05-12T09:43:09.632Z,5.83
2023-05-12T09:45:48.030Z,5.80
2023-05-12T09:48:18.762Z,8.13
2023-05-12T09:50:51.120Z,5.50
2023-05-12T09:53:19.694Z,6.20
2023-05-12T09:55:48.500Z,5.30
2023-05-12T09:58:18.093Z,5.47
2023-05-12T10:03:22.220Z,6.00
2023-05-12T10:05:55.112Z,5.57
2023-05-12T10:08:28.111Z,7.93
2023-05-12T10:10:57.817Z,4.80
2023-05-12T10:13:27.090Z,5.55
2023-05-12T10:15:57.486Z,5.53
2023-05-12T10:18:27.239Z,5.07
2023-05-12T10:20:55.134Z,5.87
2023-05-12T10:23:24.372Z,5.10
2023-05-12T10:25:53.971Z,5.60
2023-05-12T10:28:22.519Z,5.10
2023-05-12T10:30:51.755Z,6.50
2023-05-12T10:33:19.960Z,5.93
2023-05-12T10:35:50.386Z,8.97
2023-05-12T10:38:21.494Z,5.73
2023-05-12T10:40:59.041Z,5.25
2023-05-12T10:43:35.809Z,5.05
2023-05-12T10:46:18.106Z,6.40
2023-05-12T10:49:00.052Z,9.77
2023-05-12T10:51:32.196Z,6.53
2023-05-12T10:54:01.493Z,11.63
2023-05-12T10:56:31.614Z,6.32
2023-05-12T10:59:24.800Z,14.20
2023-05-12T11:02:03.667Z,5.73
2023-05-12T11:04:42.706Z,5.43
2023-05-12T11:07:14.357Z,3.87
2023-05-12T11:09:56.705Z,4.15
2023-05-12T11:12:28.090Z,4.35
2023-05-12T11:14:55.992Z,9.05
2023-05-12T11:17:23.717Z,4.88
2023-05-12T11:19:52.706Z,4.72
2023-05-12T11:22:23.284Z,3.57
2023-05-12T11:24:52.879Z,5.20
2023-05-12T11:27:26.690Z,7.28
2023-05-12T11:29:59.557Z,4.20
2023-05-12T11:32:30.164Z,4.20
2023-05-12T11:35:11.545Z,5.63
2023-05-12T11:37:43.673Z,5.18
2023-05-12T11:40:19.294Z,5.55
2023-05-12T11:42:51.480Z,4.57
2023-05-12T11:45:24.695Z,4.25
2023-05-12T11:47:53.161Z,5.40
2023-05-12T11:50:24.882Z,5.30
2023-05-12T11:52:54.638Z,5.90
2023-05-12T11:55:24.666Z,5.45
2023-05-12T11:58:00.302Z,6.05
2023-05-12T12:00:31.010Z,6.22
2023-05-12T12:03:09.563Z,5.53
2023-05-12T12:05:37.629Z,5.38
2023-05-12T12:08:08.136Z,6.28
2023-05-12T12:10:36.166Z,5.10
2023-05-12T12:13:03.928Z,5.88
2023-05-12T12:15:32.103Z,4.20
2023-05-12T12:18:02.201Z,5.53
2023-05-12T12:20:32.421Z,4.97
2023-05-12T12:23:00.174Z,6.18
2023-05-12T12:25:29.275Z,5.35
2023-05-12T12:27:58.178Z,4.00
2023-05-12T12:30:25.999Z,5.03
2023-05-12T12:32:53.786Z,4.90
2023-05-12T12:35:22.267Z,5.45
2023-05-12T12:37:52.092Z,11.50
2023-05-12T12:40:20.702Z,7.53
2023-05-12T12:42:49.879Z,5.05
2023-05-12T12:45:20.030Z,4.43
2023-05-12T12:47:48.253Z,3.00
2023-05-12T12:50:16.000Z,4.05
2023-05-12T12:52:44.217Z,5.47
2023-05-12T12:55:12.019Z,5.65
2023-05-12T12:57:39.716Z,3.28
2023-05-12T13:00:10.834Z,2.70
2023-05-12T13:02:39.028Z,5.22
2023-05-12T13:05:08.231Z,3.30
2023-05-12T13:07:36.150Z,6.03
2023-05-12T13:10:03.945Z,3.88
2023-05-12T13:12:33.141Z,5.60
2023-05-12T13:15:02.148Z,2.95
2023-05-12T13:17:31.322Z,3.72
2023-05-12T13:19:59.594Z,3.05
2023-05-12T13:22:28.923Z,6.82
2023-05-12T13:24:57.219Z,4.63
2023-05-12T13:27:25.175Z,3.05
2023-05-12T13:29:53.138Z,4.07
2023-05-12T13:32:21.770Z,3.60
2023-05-12T13:34:51.393Z,4.57
2023-05-12T13:37:19.282Z,3.33
2023-05-12T13:39:47.166Z,3.88
2023-05-12T13:42:15.069Z,3.92
2023-05-12T13:44:43.388Z,3.03
2023-05-12T13:47:11.518Z,4.00
2023-05-12T13:49:40.114Z,3.22
2023-05-12T13:52:09.519Z,4.97
2023-05-12T13:54:37.181Z,3.47
2023-05-12T13:57:06.333Z,5.18
2023-05-12T13:59:34.177Z,3.08
2023-05-12T14:02:02.182Z,4.47
2023-05-12T14:04:29.872Z,4.88
2023-05-12T14:06:57.713Z,5.07
2023-05-12T14:09:26.938Z,3.08
2023-05-12T14:11:55.044Z,3.03
2023-05-12T14:14:23.114Z,4.13
2023-05-12T14:16:50.993Z,3.40
2023-05-12T14:19:18.746Z,3.37
2023-05-12T14:21:46.566Z,7.28
2023-05-12T14:24:14.224Z,4.93
2023-05-12T14:26:43.326Z,5.15
2023-05-12T14:29:11.072Z,7.38
2023-05-12T14:31:39.143Z,3.13
2023-05-12T14:34:09.024Z,4.88
2023-05-12T14:36:36.693Z,4.45
2023-05-12T14:39:04.748Z,3.22
2023-05-12T14:41:32.419Z,4.18
2023-05-12T14:44:01.564Z,5.45
2023-05-12T14:46:29.654Z,3.67
2023-05-12T14:48:57.531Z,3.50
2023-05-12T14:51:25.254Z,4.53
2023-05-12T14:53:53.142Z,3.35
2023-05-12T14:56:20.862Z,3.37
2023-05-12T14:58:48.918Z,5.53
2023-05-12T15:01:18.103Z,3.55
2023-05-12T15:03:46.660Z,4.20
2023-05-12T15:06:16.392Z,5.18
2023-05-12T15:08:44.394Z,4.10
2023-05-12T15:11:15.202Z,5.68
2023-05-12T15:13:46.111Z,4.88
2023-05-12T15:16:16.914Z,4.15
2023-05-12T15:18:59.526Z,3.65
2023-05-12T15:21:40.682Z,2.97
2023-05-12T15:24:23.717Z,4.25
2023-05-12T15:27:04.165Z,6.43
2023-05-12T15:29:42.302Z,4.95
2023-05-12T15:32:11.132Z,3.97
2023-05-12T15:34:49.713Z,4.72
2023-05-12T15:37:26.344Z,3.25
2023-05-12T15:39:58.120Z,3.90
2023-05-12T15:42:33.357Z,5.70
2023-05-12T15:45:03.538Z,4.07
2023-05-12T15:47:32.048Z,4.70
2023-05-12T15:50:01.703Z,3.17
2023-05-12T15:52:29.450Z,5.53
2023-05-12T15:54:57.332Z,4.63
2023-05-12T15:57:25.134Z,6.68
2023-05-12T15:59:58.368Z,4.15
2023-05-12T16:02:26.180Z,4.97
2023-05-12T16:04:53.953Z,4.72
2023-05-12T16:07:23.004Z,3.90
2023-05-12T16:09:50.689Z,3.53
2023-05-12T16:12:18.451Z,3.47
2023-05-12T16:14:46.182Z,4.97
2023-05-12T16:17:13.910Z,4.57
2023-05-12T16:19:41.568Z,4.00
2023-05-12T16:22:10.280Z,4.25
2023-05-12T16:24:39.407Z,4.32
2023-05-12T16:27:07.190Z,6.00
2023-05-12T16:29:35.033Z,4.90
2023-05-12T16:32:03.023Z,4.70
2023-05-12T16:34:30.815Z,4.40
2023-05-12T16:36:58.522Z,3.45
2023-05-12T16:39:26.218Z,5.10
2023-05-12T16:41:55.881Z,3.63
2023-05-12T16:44:23.599Z,5.00
2023-05-12T16:46:51.521Z,4.83
2023-05-12T16:49:19.274Z,2.87
2023-05-12T16:51:47.187Z,2.90
2023-05-12T16:54:14.903Z,4.10
2023-05-12T16:56:42.597Z,6.13
2023-05-12T16:59:11.699Z,3.33
2023-05-12T17:01:40.085Z,3.97
2023-05-12T17:04:09.391Z,3.03
2023-05-12T17:06:37.184Z,5.10
2023-05-12T17:09:05.676Z,4.93
2023-05-12T17:11:42.965Z,2.90
2023-05-12T17:14:13.831Z,4.17
2023-05-12T17:16:41.761Z,5.90
2023-05-12T17:25:24.130Z,6.43
2023-05-12T17:27:52.138Z,2.80
2023-05-12T17:30:39.494Z,2.90
2023-05-12T17:33:12.113Z,4.25
2023-05-12T17:35:40.191Z,2.80
2023-05-12T17:38:08.355Z,4.75
2023-05-12T17:40:36.184Z,3.17
2023-05-12T17:43:05.164Z,4.87
2023-05-12T17:45:34.997Z,4.07
2023-05-12T17:48:24.065Z,3.77
2023-05-12T17:54:41.569Z,4.63
2023-05-12T18:01:00.277Z,3.87
2023-05-12T18:03:33.624Z,4.50
2023-05-12T18:06:01.821Z,5.50
2023-05-12T18:08:29.819Z,5.60
2023-05-12T18:10:57.710Z,5.57
2023-05-12T18:14:11.258Z,3.43
2023-05-12T18:16:40.775Z,4.00
2023-05-12T18:19:08.778Z,5.00
2023-05-12T18:21:36.748Z,3.77
2023-05-12T18:24:04.760Z,3.83
2023-05-12T18:26:32.687Z,4.73
2023-05-12T18:29:00.591Z,3.40
2023-05-12T18:31:28.562Z,4.10
2023-05-12T18:33:57.730Z,6.43
2023-05-12T18:36:25.586Z,3.53
2023-05-12T18:38:53.550Z,4.70
2023-05-12T18:41:21.428Z,6.72
2023-05-12T18:43:50.158Z,4.70
2023-05-12T18:46:17.986Z,3.67
2023-05-12T18:48:46.939Z,3.33
2023-05-12T18:51:16.049Z,3.50
2023-05-12T18:53:43.914Z,3.10
2023-05-12T18:56:11.785Z,3.30
2023-05-12T18:58:39.635Z,4.83
2023-05-12T19:01:07.415Z,3.07
2023-05-12T19:03:35.238Z,5.57
2023-05-12T19:06:03.033Z,4.80
2023-05-12T19:08:44.159Z,4.07
2023-05-12T19:11:12.585Z,5.40
2023-05-12T19:13:42.542Z,3.50
2023-05-12T19:19:59.151Z,5.80
2023-05-12T19:22:27.521Z,3.10
2023-05-12T19:24:56.839Z,3.97
2023-05-12T19:27:27.088Z,5.43
2023-05-12T19:29:54.962Z,4.17
2023-05-12T19:32:23.149Z,4.80
2023-05-12T19:34:51.601Z,5.00
2023-05-12T19:37:20.369Z,4.40
2023-05-12T19:39:48.134Z,3.90
2023-05-12T19:42:17.281Z,5.33
2023-05-12T19:44:45.006Z,3.63
2023-05-12T19:47:14.092Z,4.33
2023-05-12T19:49:41.893Z,4.13
2023-05-12T19:52:10.848Z,6.43
2023-05-12T19:54:38.578Z,4.60
2023-05-12T19:57:06.602Z,3.73
2023-05-12T19:59:36.214Z,4.27
2023-05-12T20:02:04.152Z,6.47
2023-05-12T20:04:31.955Z,3.90
2023-05-12T20:06:59.760Z,3.53
2023-05-12T20:09:28.234Z,5.67
2023-05-12T20:11:55.934Z,4.40
2023-05-12T20:14:23.716Z,4.27
2023-05-12T20:16:53.019Z,5.30
2023-05-12T20:19:20.829Z,5.63
2023-05-12T20:21:48.551Z,4.23
2023-05-12T20:24:16.379Z,3.83
2023-05-12T20:26:44.210Z,3.87
2023-05-12T20:29:12.076Z,4.97
2023-05-12T20:31:39.844Z,6.87
2023-05-12T20:34:09.060Z,4.57
2023-05-12T20:36:36.747Z,4.23
2023-05-12T20:39:04.698Z,5.07
2023-05-12T20:41:32.462Z,4.13
2023-05-12T20:44:00.157Z,3.57
2023-05-12T20:46:28.381Z,4.33
2023-05-12T20:48:56.190Z,3.87
2023-05-12T20:51:25.523Z,5.83
2023-05-12T20:53:53.750Z,5.03
2023-05-12T20:56:23.260Z,4.60
2023-05-12T20:58:51.153Z,4.93
2023-05-12T21:01:18.978Z,4.47
2023-05-12T21:03:46.703Z,4.20
2023-05-12T21:06:14.579Z,5.20
2023-05-12T21:08:43.734Z,4.60
2023-05-12T21:11:16.549Z,4.40
2023-05-12T21:13:44.652Z,7.97
2023-05-12T21:16:12.579Z,6.93
2023-05-12T21:18:40.615Z,4.20
2023-05-12T21:21:08.609Z,7.30
2023-05-12T21:23:37.483Z,4.13
2023-05-12T21:26:06.647Z,5.00
2023-05-12T21:28:34.369Z,5.20
2023-05-12T21:31:02.109Z,5.00
2023-05-12T21:33:30.321Z,5.23
2023-05-12T21:35:57.990Z,4.00
2023-05-12T21:38:25.763Z,5.43
2023-05-12T21:40:55.303Z,5.23
2023-05-12T21:43:24.760Z,4.37
2023-05-12T21:45:52.712Z,7.17
2023-05-12T21:48:20.464Z,4.90
2023-05-12T21:50:58.129Z,5.60
2023-05-12T21:53:25.840Z,6.20
2023-05-12T21:55:53.624Z,7.87
2023-05-12T21:58:23.545Z,6.67
2023-05-12T22:00:53.023Z,4.50
2023-05-12T22:03:21.913Z,5.13
2023-05-12T22:05:50.264Z,4.93
2023-05-12T22:08:18.482Z,5.77
2023-05-12T22:10:46.804Z,3.97
2023-05-12T22:13:14.591Z,4.10
2023-05-12T22:15:42.646Z,5.43
2023-05-12T22:18:11.741Z,6.37
2023-05-12T22:20:39.766Z,4.60
2023-05-12T22:23:07.481Z,4.97
2023-05-12T22:25:35.498Z,4.10
2023-05-12T22:28:04.037Z,4.23
2023-05-12T22:30:33.042Z,5.37
2023-05-12T22:33:01.032Z,5.50
2023-05-12T22:35:30.128Z,5.33
2023-05-12T22:37:58.065Z,6.37
2023-05-12T22:40:27.104Z,5.50
2023-05-12T22:42:54.761Z,5.43
2023-05-12T22:45:22.493Z,4.67
2023-05-12T22:47:50.508Z,5.00
2023-05-12T22:50:18.792Z,4.07
2023-05-12T22:52:47.995Z,7.43
2023-05-12T22:55:15.719Z,4.67
2023-05-12T22:57:45.891Z,4.70
2023-05-12T23:00:14.662Z,4.60
2023-05-12T23:02:42.404Z,5.03
2023-05-12T23:05:10.896Z,4.23
2023-05-12T23:07:38.588Z,3.97
2023-05-12T23:10:09.131Z,6.07
2023-05-12T23:12:36.826Z,6.40
2023-05-12T23:15:04.855Z,5.13
2023-05-12T23:17:32.675Z,4.50
2023-05-12T23:20:00.495Z,4.20
2023-05-12T23:22:28.207Z,6.47
2023-05-12T23:24:57.487Z,4.60
2023-05-12T23:27:26.981Z,4.07
2023-05-12T23:29:54.781Z,5.30
2023-05-12T23:32:22.561Z,4.50
2023-05-12T23:34:50.595Z,5.03
2023-05-12T23:37:19.268Z,4.70
2023-05-12T23:39:47.023Z,4.97
2023-05-12T23:42:22.646Z,4.90
2023-05-12T23:44:50.633Z,5.70
2023-05-12T23:47:18.408Z,5.93
2023-05-12T23:49:46.144Z,5.50
2023-05-12T23:52:13.791Z,9.47
2023-05-12T23:54:41.483Z,5.03
2023-05-12T23:57:09.159Z,7.03
2023-05-12T23:59:38.594Z,5.67
